Time;durP1;ratioP1;P1;durP2;ratioP2;P2;SDS_P1;SDS_P2;PMS_P1;PMS_P2;Temp;Humidity;BMP_temperature;BMP_pressure;BME280_temperature;BME280_humidity;BME280_pressure;Samples;Min_cycle;Max_cycle;Signal;HPM_P1;HPM_P2
2023/03/25 00:04:03;;;;;;;2.10;0.77;;;16.00;74.80;;;;;;10449194;28;20108;-53
2023/03/25 00:09:04;;;;;;;2.38;0.60;;;16.00;74.70;;;;;;10447640;28;20039;-53
2023/03/25 00:14:04;;;;;;;2.08;0.70;;;15.90;74.60;;;;;;10448931;28;20137;-53
2023/03/25 00:19:05;;;;;;;2.38;0.57;;;15.90;74.80;;;;;;10448742;28;20100;-54
2023/03/25 00:24:06;;;;;;;1.65;0.75;;;15.90;74.60;;;;;;10448512;28;20039;-54
2023/03/25 00:29:07;;;;;;;2.38;0.80;;;15.90;74.40;;;;;;10447998;28;20068;-53
2023/03/25 00:34:08;;;;;;;1.70;0.70;;;15.90;74.50;;;;;;10446444;28;20021;-53
2023/03/25 00:39:09;;;;;;;2.85;0.90;;;15.90;74.60;;;;;;10446585;28;20044;-54
2023/03/25 00:44:16;;;;;;;2.35;0.60;;;15.90;74.40;;;;;;10446567;28;20021;-54
2023/03/25 00:49:16;;;;;;;1.58;0.82;;;15.90;74.30;;;;;;10446370;28;20033;-54
2023/03/25 00:54:17;;;;;;;1.88;0.70;;;15.90;74.50;;;;;;10416019;28;20017;-54
2023/03/25 00:59:18;;;;;;;1.08;0.52;;;15.90;74.50;;;;;;10445706;28;20017;-55
2023/03/25 01:04:18;;;;;;;2.20;0.80;;;15.80;74.30;;;;;;10446148;28;20028;-54
2023/03/25 01:09:20;;;;;;;1.00;0.57;;;15.80;74.20;;;;;;10445474;28;20116;-54
2023/03/25 01:14:23;;;;;;;2.03;0.65;;;15.80;74.10;;;;;;10446785;28;20057;-55
2023/03/25 01:19:23;;;;;;;3.55;0.77;;;15.80;74.10;;;;;;10446496;28;20024;-53
2023/03/25 01:24:25;;;;;;;1.05;0.63;;;15.80;74.10;;;;;;10446683;28;20053;-53
2023/03/25 01:29:26;;;;;;;2.33;1.10;;;15.80;74.00;;;;;;10445165;28;20709;-55
2023/03/25 01:34:27;;;;;;;2.50;0.88;;;15.80;74.10;;;;;;10445427;28;20104;-53
2023/03/25 01:39:28;;;;;;;1.58;1.17;;;15.80;74.10;;;;;;10446934;28;20063;-54
2023/03/25 01:44:28;;;;;;;1.10;0.60;;;15.70;74.00;;;;;;10454867;28;20082;-54
2023/03/25 01:49:43;;;;;;;2.65;0.85;;;15.80;74.00;;;;;;10454288;28;20033;-54
2023/03/25 01:54:45;;;;;;;1.55;0.70;;;15.70;73.90;;;;;;10439361;28;20099;-53
2023/03/25 01:59:46;;;;;;;2.30;0.85;;;15.70;73.90;;;;;;10466338;28;20035;-52
2023/03/25 02:04:58;;;;;;;1.50;1.00;;;15.80;74.00;;;;;;10452332;28;20074;-54
2023/03/25 02:10:07;;;;;;;2.35;0.80;;;15.70;73.80;;;;;;10452418;28;20037;-55
2023/03/25 02:15:10;;;;;;;2.15;0.80;;;15.70;73.80;;;;;;10452014;28;20041;-55
2023/03/25 02:20:44;;;;;;;2.45;0.60;;;15.70;74.00;;;;;;10453239;28;20063;-54
2023/03/25 02:26:40;;;;;;;1.50;0.63;;;15.70;73.80;;;;;;10425965;28;20027;-54
2023/03/25 02:32:06;;;;;;;3.00;0.55;;;15.70;73.80;;;;;;10443289;28;20122;-54
2023/03/25 02:37:17;;;;;;;0.88;0.60;;;15.70;73.80;;;;;;10452877;28;20353;-54
2023/03/25 02:42:32;;;;;;;2.85;0.75;;;15.70;73.70;;;;;;10451346;28;20025;-54
2023/03/25 02:47:38;;;;;;;1.42;0.63;;;15.70;73.80;;;;;;10451132;28;20511;-55
2023/03/25 02:52:46;;;;;;;1.85;0.70;;;15.60;73.70;;;;;;10426577;28;20549;-53
2023/03/25 02:57:51;;;;;;;2.20;0.80;;;15.60;73.70;;;;;;10461419;28;20013;-53
2023/03/25 03:02:59;;;;;;;1.40;0.60;;;15.60;73.60;;;;;;10450065;28;20029;-52
2023/03/25 03:08:21;;;;;;;1.38;0.60;;;15.60;73.60;;;;;;10451637;28;20017;-54
2023/03/25 03:14:02;;;;;;;1.58;0.60;;;15.60;73.70;;;;;;10451277;28;20404;-54
2023/03/25 03:19:37;;;;;;;1.30;0.57;;;15.60;73.60;;;;;;10452215;28;20091;-53
2023/03/25 03:24:51;;;;;;;2.45;0.82;;;15.60;73.50;;;;;;10437432;28;20017;-54
2023/03/25 03:30:05;;;;;;;1.63;0.73;;;15.60;73.60;;;;;;10434522;28;20112;-54
2023/03/25 03:35:26;;;;;;;1.35;0.50;;;15.60;73.50;;;;;;10449117;28;20549;-53
2023/03/25 03:40:30;;;;;;;0.80;0.50;;;15.60;74.10;;;;;;10449456;28;20110;-53
2023/03/25 03:45:47;;;;;;;1.83;0.80;;;15.60;73.50;;;;;;10432212;28;20013;-54
2023/03/25 03:50:59;;;;;;;4.25;0.70;;;15.50;73.50;;;;;;10449969;28;20033;-54
2023/03/25 03:56:18;;;;;;;1.02;0.50;;;15.50;73.50;;;;;;10448467;28;20009;-56
2023/03/25 04:01:44;;;;;;;2.25;0.98;;;15.50;73.50;;;;;;10448080;28;20113;-52
2023/03/25 04:07:03;;;;;;;1.45;0.80;;;15.50;74.00;;;;;;10449164;28;20029;-54
2023/03/25 04:12:12;;;;;;;1.33;0.70;;;15.50;73.50;;;;;;10431046;28;20048;-54
2023/03/25 04:17:13;;;;;;;2.45;1.08;;;15.50;73.50;;;;;;10448251;28;20013;-53
2023/03/25 04:22:17;;;;;;;2.45;0.60;;;15.50;73.40;;;;;;10448636;28;20496;-54
2023/03/25 04:27:18;;;;;;;1.13;0.50;;;15.50;73.40;;;;;;10447156;28;20408;-53
2023/03/25 04:32:19;;;;;;;1.73;0.77;;;15.50;73.40;;;;;;10447790;28;20510;-54
2023/03/25 04:37:21;;;;;;;3.42;0.82;;;15.50;73.40;;;;;;10447996;28;20021;-53
2023/03/25 04:42:24;;;;;;;2.00;0.80;;;15.50;73.30;;;;;;10446569;28;20120;-53
2023/03/25 04:47:25;;;;;;;2.35;1.15;;;15.40;73.30;;;;;;10447553;28;20017;-55
2023/03/25 04:52:26;;;;;;;3.20;0.88;;;15.40;73.20;;;;;;10441236;28;20469;-52
2023/03/25 04:57:26;;;;;;;1.65;0.80;;;15.40;73.20;;;;;;10453961;28;20461;-54
2023/03/25 05:02:27;;;;;;;2.78;0.60;;;15.40;73.20;;;;;;10445908;28;20044;-54
2023/03/25 05:07:32;;;;;;;2.58;0.85;;;15.50;73.60;;;;;;10439410;28;20037;-55
2023/03/25 05:12:32;;;;;;;1.10;0.50;;;15.60;73.20;;;;;;10446163;28;20033;-54
2023/03/25 05:17:33;;;;;;;2.38;0.80;;;15.70;72.70;;;;;;10445401;28;20017;-54
2023/03/25 05:22:36;;;;;;;1.52;0.70;;;15.80;72.20;;;;;;10443835;28;20056;-54
2023/03/25 05:27:38;;;;;;;1.08;0.60;;;15.90;71.70;;;;;;10445363;28;20024;-53
2023/03/25 05:32:39;;;;;;;2.33;0.65;;;16.00;71.50;;;;;;10445427;28;20025;-53
2023/03/25 05:37:41;;;;;;;1.08;0.40;;;16.10;71.20;;;;;;10453312;28;20508;-54
2023/03/25 05:42:45;;;;;;;1.48;0.50;;;16.10;71.60;;;;;;10429235;28;20017;-52
2023/03/25 05:47:46;;;;;;;2.13;0.80;;;16.10;70.90;;;;;;10445092;28;20480;-53
2023/03/25 05:52:50;;;;;;;5.25;1.25;;;16.20;70.80;;;;;;10445553;28;20452;-52
2023/03/25 05:57:51;;;;;;;8.20;1.80;;;16.20;71.10;;;;;;10460679;28;20017;-53
2023/03/25 06:02:52;;;;;;;10.68;1.80;;;16.30;71.70;;;;;;10426713;28;20050;-56
2023/03/25 06:07:55;;;;;;;9.55;1.50;;;16.50;72.00;;;;;;10443985;28;20029;-54
2023/03/25 06:12:55;;;;;;;9.63;1.90;;;16.60;72.60;;;;;;10443460;28;20129;-55
2023/03/25 06:17:56;;;;;;;14.02;2.88;;;16.60;72.40;;;;;;10444194;28;20017;-53
2023/03/25 06:22:57;;;;;;;13.57;2.60;;;16.50;72.40;;;;;;10426712;28;20048;-54
2023/03/25 06:28:01;;;;;;;9.95;2.67;;;16.50;72.50;;;;;;10448831;28;20687;-53
2023/03/25 06:33:04;;;;;;;16.40;2.80;;;16.40;72.90;;;;;;10449817;28;20048;-54
2023/03/25 06:38:05;;;;;;;17.45;2.72;;;16.30;72.70;;;;;;10441173;28;20057;-54
2023/03/25 06:43:06;;;;;;;12.35;2.83;;;16.20;72.70;;;;;;10439593;28;20108;-53
2023/03/25 06:48:07;;;;;;;14.05;3.05;;;16.10;72.70;;;;;;10445957;28;20431;-54
2023/03/25 06:53:10;;;;;;;11.60;1.92;;;16.10;72.70;;;;;;10462415;28;20032;-53
2023/03/25 06:58:11;;;;;;;12.95;4.07;;;16.00;72.60;;;;;;10433766;28;20017;-53
2023/03/25 07:03:11;;;;;;;8.68;2.10;;;16.00;72.70;;;;;;10461944;28;20040;-53
2023/03/25 07:08:12;;;;;;;5.07;1.65;;;16.00;72.80;;;;;;10460378;28;20048;-53
2023/03/25 07:13:13;;;;;;;5.53;2.13;;;15.90;72.70;;;;;;10441065;28;20555;-53
2023/03/25 07:18:14;;;;;;;8.63;1.70;;;15.90;72.80;;;;;;10449764;28;20130;-54
2023/03/25 07:23:15;;;;;;;8.35;2.50;;;15.90;72.70;;;;;;10463238;28;20044;-53
2023/03/25 07:28:15;;;;;;;5.85;1.42;;;15.80;72.70;;;;;;10462847;28;20108;-54
2023/03/25 07:33:16;;;;;;;8.32;1.60;;;15.80;72.90;;;;;;10433114;28;20144;-54
2023/03/25 07:38:17;;;;;;;7.40;1.50;;;15.80;72.80;;;;;;10433501;28;20590;-57
2023/03/25 07:43:17;;;;;;;5.32;1.50;;;15.80;72.80;;;;;;10468792;28;20045;-54
2023/03/25 07:48:18;;;;;;;8.80;1.92;;;15.70;72.90;;;;;;10446665;28;20025;-53
2023/03/25 07:53:19;;;;;;;3.78;1.42;;;15.70;72.90;;;;;;10439945;28;20059;-52
2023/03/25 07:58:20;;;;;;;5.82;1.30;;;15.70;72.90;;;;;;10459480;28;20099;-53
2023/03/25 08:03:20;;;;;;;8.18;2.50;;;15.70;73.00;;;;;;10441503;28;20031;-54
2023/03/25 08:08:21;;;;;;;7.47;2.83;;;15.70;72.60;;;;;;10458234;28;20060;-54
2023/03/25 08:13:22;;;;;;;9.45;2.38;;;15.70;72.20;;;;;;10451726;28;20028;-53
2023/03/25 08:18:23;;;;;;;8.02;1.67;;;15.80;72.10;;;;;;10470831;28;20047;-55
2023/03/25 08:23:25;;;;;;;5.95;1.42;;;15.90;71.80;;;;;;10440855;28;20119;-54
2023/03/25 08:28:26;;;;;;;8.18;2.42;;;15.90;71.70;;;;;;10441778;28;20095;-54
2023/03/25 08:33:33;;;;;;;7.18;2.65;;;15.90;71.60;;;;;;10448127;28;20066;-54
2023/03/25 08:38:34;;;;;;;8.55;2.25;;;15.90;71.80;;;;;;10445651;28;20009;-53
2023/03/25 08:43:34;;;;;;;5.40;1.70;;;15.80;71.80;;;;;;10444692;28;20540;-55
2023/03/25 08:48:35;;;;;;;6.28;1.90;;;15.90;72.00;;;;;;10444131;28;20107;-55
2023/03/25 08:53:36;;;;;;;8.18;2.00;;;15.90;71.80;;;;;;10439994;28;20036;-54
2023/03/25 08:58:36;;;;;;;6.25;2.00;;;15.90;71.80;;;;;;10444554;28;20452;-54
2023/03/25 09:03:39;;;;;;;7.10;2.90;;;15.80;71.90;;;;;;10444651;28;20021;-53
2023/03/25 09:08:40;;;;;;;7.55;4.22;;;15.80;72.00;;;;;;10440857;28;20024;-54
2023/03/25 09:13:41;;;;;;;6.80;5.25;;;15.80;72.30;;;;;;10440970;28;20044;-53
2023/03/25 09:18:41;;;;;;;12.27;8.13;;;15.70;72.50;;;;;;10443382;28;20471;-55
2023/03/25 09:23:42;;;;;;;10.90;7.97;;;15.70;72.80;;;;;;10443650;28;20479;-55
2023/03/25 09:28:43;;;;;;;11.00;8.98;;;15.70;72.80;;;;;;10443485;28;20108;-54
2023/03/25 09:33:43;;;;;;;14.43;8.40;;;15.80;72.90;;;;;;10444393;28;20092;-54
2023/03/25 09:38:44;;;;;;;13.35;7.68;;;15.70;72.80;;;;;;10444672;28;20096;-54
2023/03/25 09:44:57;;;;;;;16.83;9.80;;;15.70;72.90;;;;;;10445436;28;20055;-54
2023/03/25 09:50:03;;;;;;;16.05;8.75;;;15.80;73.50;;;;;;10421609;28;20072;-53
2023/03/25 09:55:13;;;;;;;15.80;7.47;;;15.90;73.10;;;;;;10429990;28;20026;-54
2023/03/25 10:00:24;;;;;;;17.02;8.00;;;15.90;72.80;;;;;;10429197;28;20640;-53
2023/03/25 10:05:59;;;;;;;14.95;6.18;;;15.80;72.70;;;;;;10448196;28;20075;-54
2023/03/25 10:11:24;;;;;;;11.23;7.07;;;15.80;72.90;;;;;;10442814;28;20129;-54
2023/03/25 10:16:59;;;;;;;14.70;6.93;;;15.80;73.00;;;;;;10440871;28;20112;-54
2023/03/25 10:22:15;;;;;;;16.27;6.95;;;15.80;72.90;;;;;;10467818;28;20032;-54
2023/03/25 10:27:38;;;;;;;15.63;6.30;;;15.80;72.90;;;;;;10450304;28;20021;-52
2023/03/25 10:32:43;;;;;;;20.90;6.47;;;15.80;73.20;;;;;;10449809;28;20102;-54
2023/03/25 10:37:46;;;;;;;24.17;8.35;;;16.00;73.00;;;;;;10439274;28;20026;-54
2023/03/25 10:43:22;;;;;;;14.25;8.30;;;16.00;72.90;;;;;;10450790;28;20025;-54
2023/03/25 10:48:26;;;;;;;11.13;6.35;;;15.90;73.00;;;;;;10442501;28;20119;-54
2023/03/25 10:53:28;;;;;;;18.98;6.32;;;15.90;73.10;;;;;;10443739;28;20462;-53
2023/03/25 10:58:31;;;;;;;18.58;6.25;;;15.90;73.20;;;;;;10452912;28;20028;-51
2023/03/25 11:03:33;;;;;;;17.83;6.53;;;16.00;73.40;;;;;;10439060;28;20270;-53
2023/03/25 11:08:34;;;;;;;25.85;6.20;;;16.00;73.30;;;;;;10449251;28;20063;-54
2023/03/25 11:13:35;;;;;;;21.73;7.57;;;15.90;73.20;;;;;;10446054;28;20033;-53
2023/03/25 11:18:37;;;;;;;21.10;4.90;;;15.90;73.30;;;;;;10448090;28;20028;-52
2023/03/25 11:23:48;;;;;;;13.38;4.82;;;16.00;73.40;;;;;;10448737;28;20025;-54
2023/03/25 11:29:01;;;;;;;14.98;5.50;;;16.00;73.00;;;;;;10460433;28;20087;-53
2023/03/25 11:34:20;;;;;;;26.02;5.70;;;15.90;73.10;;;;;;10448564;28;20023;-52
2023/03/25 11:39:38;;;;;;;25.55;6.25;;;16.00;73.60;;;;;;10445920;28;20060;-54
2023/03/25 11:44:39;;;;;;;16.42;4.70;;;16.00;73.50;;;;;;10440929;28;20029;-52
2023/03/25 11:49:40;;;;;;;21.42;5.28;;;16.10;74.00;;;;;;10426122;28;20534;-51
2023/03/25 11:54:41;;;;;;;19.35;5.03;;;16.10;73.20;;;;;;10418027;28;20112;-51
2023/03/25 11:59:48;;;;;;;20.20;4.95;;;16.10;73.30;;;;;;10447087;28;20380;-53
2023/03/25 12:05:00;;;;;;;27.45;6.78;;;16.20;73.10;;;;;;10446020;28;20040;-50
2023/03/25 12:10:14;;;;;;;14.65;3.55;;;16.10;73.10;;;;;;10458212;28;20416;-49
2023/03/25 12:15:52;;;;;;;18.45;4.32;;;16.20;73.50;;;;;;10428867;28;20060;-51
2023/03/25 12:21:19;;;;;;;18.27;4.47;;;16.10;73.50;;;;;;10447116;28;20436;-52
2023/03/25 12:26:38;;;;;;;14.68;3.65;;;16.00;73.30;;;;;;10436451;28;20043;-51
2023/03/25 12:32:16;;;;;;;10.35;3.95;;;16.00;73.40;;;;;;10451970;28;20028;-52
2023/03/25 12:37:43;;;;;;;17.73;5.93;;;15.90;73.70;;;;;;10446083;28;20020;-52
2023/03/25 12:42:55;;;;;;;13.52;4.22;;;15.80;73.70;;;;;;10444358;28;20713;-52
2023/03/25 12:48:29;;;;;;;13.88;3.45;;;15.80;73.60;;;;;;10445587;28;20124;-52
2023/03/25 12:53:51;;;;;;;7.38;3.42;;;15.80;73.50;;;;;;10429804;28;20053;-51
2023/03/25 12:59:01;;;;;;;9.55;2.85;;;15.70;73.50;;;;;;10444950;28;20025;-52
2023/03/25 13:04:08;;;;;;;16.63;3.35;;;15.70;73.60;;;;;;10445062;28;20033;-53
2023/03/25 13:09:19;;;;;;;9.75;3.05;;;15.80;73.80;;;;;;10443501;28;20028;-50
2023/03/25 13:14:55;;;;;;;9.80;4.00;;;15.80;73.70;;;;;;10435309;28;20040;-53
2023/03/25 13:20:01;;;;;;;7.93;3.05;;;15.80;73.40;;;;;;10436140;28;20075;-52
2023/03/25 13:25:09;;;;;;;8.25;3.55;;;15.80;73.50;;;;;;10443428;28;20029;-50
2023/03/25 13:30:23;;;;;;;8.77;2.92;;;15.80;73.60;;;;;;10445240;28;20037;-52
2023/03/25 13:35:45;;;;;;;11.13;2.78;;;15.80;73.60;;;;;;10434692;28;20587;-52
2023/03/25 13:41:10;;;;;;;16.90;3.95;;;15.90;73.80;;;;;;10457819;28;20108;-53
2023/03/25 13:46:20;;;;;;;12.23;3.00;;;16.00;73.60;;;;;;10451038;28;20028;-56
2023/03/25 13:51:22;;;;;;;13.00;2.72;;;16.00;73.80;;;;;;10457594;28;20656;-52
2023/03/25 13:56:52;;;;;;;9.80;3.33;;;16.10;73.50;;;;;;10456188;28;20620;-53
2023/03/25 14:02:28;;;;;;;;;;;16.00;73.30;;;;;;10457112;28;20029;-51
2023/03/25 14:07:53;;;;;;;10.35;2.38;;;15.80;73.40;;;;;;10440329;28;19909;-52
2023/03/25 14:13:00;;;;;;;11.35;3.78;;;15.80;73.50;;;;;;10442539;28;20501;-53
2023/03/25 14:18:02;;;;;;;10.48;2.53;;;15.80;73.00;;;;;;10451809;28;20574;-53
2023/03/25 14:23:06;;;;;;;19.45;4.10;;;15.80;73.40;;;;;;10418313;28;20036;-51
2023/03/25 14:28:29;;;;;;;14.38;3.88;;;15.90;73.40;;;;;;10451247;28;20158;-54
2023/03/25 14:33:59;;;;;;;18.80;3.90;;;15.90;73.00;;;;;;10456960;28;20037;-53
2023/03/25 14:39:00;;;;;;;11.95;3.30;;;15.90;73.10;;;;;;10455905;28;20029;-53
2023/03/25 14:44:18;;;;;;;15.43;4.20;;;15.80;73.20;;;;;;10456734;28;20103;-53
2023/03/25 14:49:22;;;;;;;14.32;3.45;;;15.70;73.10;;;;;;10450857;28;20103;-51
2023/03/25 14:54:32;;;;;;;15.80;3.38;;;15.70;72.70;;;;;;10446412;28;20028;-53
2023/03/25 14:59:48;;;;;;;13.98;3.95;;;15.80;72.60;;;;;;10446651;28;20150;-52
2023/03/25 15:04:59;;;;;;;14.25;2.70;;;15.90;72.60;;;;;;10446996;28;20033;-54
2023/03/25 15:10:00;;;;;;;9.25;2.53;;;15.90;72.80;;;;;;10451204;28;20033;-53
2023/03/25 15:15:31;;;;;;;13.20;2.63;;;15.90;72.20;;;;;;10448858;28;20080;-51
2023/03/25 15:20:34;;;;;;;8.80;2.58;;;16.00;72.40;;;;;;10443197;28;20021;-54
2023/03/25 15:25:35;;;;;;;8.93;2.80;;;16.00;72.10;;;;;;10422556;28;20060;-53
2023/03/25 15:30:50;;;;;;;10.27;3.92;;;16.00;72.20;;;;;;10447948;28;20032;-53
2023/03/25 15:36:54;;;;;;;7.28;1.92;;;15.90;72.20;;;;;;10448700;28;20021;-51
2023/03/25 15:42:19;;;;;;;6.88;2.45;;;15.90;72.40;;;;;;10408141;28;20041;-52
2023/03/25 15:47:59;;;;;;;12.07;3.45;;;15.90;72.50;;;;;;10446479;28;20040;-52
2023/03/25 15:53:27;;;;;;;31.80;4.05;;;15.80;72.50;;;;;;10454411;28;20124;-53
2023/03/25 15:58:58;;;;;;;21.55;3.42;;;15.80;72.80;;;;;;10444315;28;20053;-53
2023/03/25 16:04:41;;;;;;;17.15;4.03;;;15.80;73.40;;;;;;10427326;28;20025;-51
2023/03/25 16:09:47;;;;;;;18.35;4.43;;;15.90;73.20;;;;;;10424708;28;20025;-50
2023/03/25 16:14:50;;;;;;;16.92;4.65;;;15.80;73.50;;;;;;10448515;28;20052;-52
2023/03/25 16:19:53;;;;;;;15.50;4.10;;;15.80;73.70;;;;;;10447095;28;20496;-52
2023/03/25 16:25:16;;;;;;;17.23;4.97;;;16.00;73.80;;;;;;10444935;28;20021;-54
2023/03/25 16:30:35;;;;;;;13.18;3.90;;;16.10;73.00;;;;;;10456700;28;20040;-53
2023/03/25 16:35:50;;;;;;;15.30;3.83;;;16.30;73.80;;;;;;10448167;28;20021;-52
2023/03/25 16:41:11;;;;;;;13.32;4.78;;;16.40;73.80;;;;;;10447917;28;20631;-53
2023/03/25 16:46:14;;;;;;;16.02;4.65;;;16.30;74.60;;;;;;10446166;28;20362;-53
2023/03/25 16:51:28;;;;;;;13.38;3.90;;;16.40;74.90;;;;;;10445965;28;20048;-52
2023/03/25 16:56:32;;;;;;;22.27;4.18;;;16.30;74.50;;;;;;10446037;28;20111;-52
2023/03/25 17:01:41;;;;;;;23.98;4.63;;;16.80;74.40;;;;;;10447026;28;20171;-52
2023/03/25 17:06:51;;;;;;;19.98;4.13;;;16.80;76.00;;;;;;10433977;28;20028;-53
2023/03/25 17:11:56;;;;;;;15.07;3.80;;;16.80;75.70;;;;;;10444395;28;20053;-55
2023/03/25 17:17:01;;;;;;;23.30;4.68;;;16.70;74.60;;;;;;10445071;28;20029;-50
2023/03/25 17:22:15;;;;;;;19.05;3.72;;;16.60;74.70;;;;;;10445263;28;20377;-51
2023/03/25 17:27:24;;;;;;;23.80;3.92;;;16.50;75.10;;;;;;10445080;28;20071;-52
2023/03/25 17:32:25;;;;;;;16.47;4.27;;;16.30;75.00;;;;;;10445456;28;20021;-50
2023/03/25 17:37:28;;;;;;;12.75;3.65;;;16.20;75.30;;;;;;10446521;28;20044;-52
2023/03/25 17:42:32;;;;;;;15.50;3.78;;;16.00;75.30;;;;;;10444610;28;20021;-51
2023/03/25 17:47:33;;;;;;;10.95;3.83;;;16.00;75.40;;;;;;10443152;28;20509;-54
2023/03/25 17:52:35;;;;;;;15.00;4.32;;;15.90;75.00;;;;;;10443399;28;20100;-53
2023/03/25 17:57:37;;;;;;;11.57;2.92;;;15.90;75.10;;;;;;10444066;28;20028;-50
2023/03/25 18:02:39;;;;;;;6.90;2.42;;;15.80;75.10;;;;;;10440450;28;20029;-52
2023/03/25 18:07:40;;;;;;;9.20;3.65;;;15.80;75.10;;;;;;10444347;28;20038;-52
2023/03/25 18:12:42;;;;;;;11.10;2.58;;;15.80;75.00;;;;;;10443256;28;20049;-53
2023/03/25 18:17:42;;;;;;;7.55;3.10;;;15.80;75.00;;;;;;10441912;28;20414;-50
2023/03/25 18:22:43;;;;;;;13.95;3.10;;;15.70;74.90;;;;;;10461001;28;20167;-49
2023/03/25 18:27:50;;;;;;;6.18;3.40;;;15.80;74.90;;;;;;10467135;28;20036;-53
2023/03/25 18:32:51;;;;;;;7.90;2.88;;;15.70;74.60;;;;;;10451484;28;20147;-51
2023/03/25 18:37:52;;;;;;;9.73;3.42;;;15.70;74.50;;;;;;10449606;28;20126;-53
2023/03/25 18:42:54;;;;;;;8.52;2.92;;;15.70;74.50;;;;;;10452510;28;20029;-53
2023/03/25 18:47:55;;;;;;;7.90;3.25;;;15.80;74.40;;;;;;10446051;28;20022;-54
2023/03/25 18:52:56;;;;;;;8.25;2.70;;;15.80;74.20;;;;;;10461307;28;20395;-54
2023/03/25 18:57:57;;;;;;;8.98;2.28;;;15.80;74.10;;;;;;10444952;28;20104;-51
2023/03/25 19:02:58;;;;;;;12.80;4.28;;;15.80;74.00;;;;;;10429193;28;20126;-53
2023/03/25 19:07:59;;;;;;;10.38;3.97;;;15.70;75.00;;;;;;10429761;28;20180;-52
2023/03/25 19:12:59;;;;;;;9.18;2.88;;;15.70;75.10;;;;;;10433889;28;20055;-56
2023/03/25 19:18:00;;;;;;;12.38;2.63;;;15.70;75.20;;;;;;10429004;28;20423;-52
2023/03/25 19:23:03;;;;;;;8.38;3.13;;;15.70;75.30;;;;;;10437914;28;20025;-53
2023/03/25 19:28:05;;;;;;;12.20;4.82;;;15.70;75.20;;;;;;10441550;28;20022;-52
2023/03/25 19:33:06;;;;;;;11.10;3.38;;;15.70;75.40;;;;;;10434116;28;20018;-53
2023/03/25 19:38:07;;;;;;;13.52;3.65;;;15.70;75.20;;;;;;10418496;28;20026;-52
2023/03/25 19:43:09;;;;;;;9.68;2.70;;;15.70;75.40;;;;;;10428134;28;20033;-51
2023/03/25 19:48:10;;;;;;;7.07;2.80;;;15.70;75.30;;;;;;10430209;28;20029;-54
2023/03/25 19:53:11;;;;;;;10.23;2.63;;;15.70;75.30;;;;;;10431897;28;20112;-52
2023/03/25 19:58:12;;;;;;;8.35;2.15;;;15.70;75.30;;;;;;10426088;28;20108;-52
2023/03/25 20:03:13;;;;;;;6.07;2.28;;;15.70;75.30;;;;;;10447110;28;20049;-53
2023/03/25 20:08:14;;;;;;;11.25;3.17;;;15.70;75.40;;;;;;10448027;28;20409;-53
2023/03/25 20:13:15;;;;;;;5.88;3.05;;;15.70;75.30;;;;;;10445050;28;20095;-56
2023/03/25 20:18:16;;;;;;;7.60;2.42;;;15.70;75.40;;;;;;10447323;28;20043;-54
2023/03/25 20:23:17;;;;;;;8.98;2.30;;;15.70;75.20;;;;;;10443576;28;20055;-52
2023/03/25 20:28:17;;;;;;;7.32;1.70;;;15.70;75.10;;;;;;10444328;28;20025;-54
2023/03/25 20:33:18;;;;;;;4.68;1.95;;;15.60;75.00;;;;;;10446277;28;20021;-54
2023/03/25 20:38:19;;;;;;;8.23;2.13;;;15.60;75.10;;;;;;10444369;28;20100;-54
2023/03/25 20:43:19;;;;;;;4.57;2.00;;;15.50;75.00;;;;;;10443973;28;20021;-54
2023/03/25 20:48:21;;;;;;;8.75;2.40;;;15.50;75.00;;;;;;10444429;28;20025;-53
2023/03/25 20:53:22;;;;;;;6.45;2.15;;;15.50;74.90;;;;;;10446836;28;20029;-54
2023/03/25 20:58:24;;;;;;;6.70;1.73;;;15.50;74.80;;;;;;10446714;28;20112;-54
2023/03/25 21:03:26;;;;;;;4.80;1.35;;;15.50;74.80;;;;;;10458032;28;20548;-54
2023/03/25 21:08:32;;;;;;;5.45;2.10;;;15.50;74.70;;;;;;10445238;28;20033;-54
2023/03/25 21:13:33;;;;;;;7.90;2.70;;;15.50;74.70;;;;;;10436519;28;20101;-53
2023/03/25 21:18:34;;;;;;;6.63;2.38;;;15.50;74.60;;;;;;10445432;28;20549;-54
2023/03/25 21:23:35;;;;;;;3.60;1.45;;;15.50;74.60;;;;;;10446210;28;20036;-54
2023/03/25 21:28:37;;;;;;;5.22;1.73;;;15.40;74.50;;;;;;10445470;28;20147;-55
2023/03/25 21:33:38;;;;;;;3.88;1.83;;;15.40;74.50;;;;;;10444916;28;20024;-54
2023/03/25 21:38:39;;;;;;;4.32;1.38;;;15.40;74.40;;;;;;10461485;28;20577;-53
2023/03/25 21:43:41;;;;;;;6.72;2.05;;;15.40;74.40;;;;;;10461150;28;20017;-53
2023/03/25 21:48:43;;;;;;;6.22;1.70;;;15.40;74.30;;;;;;10444690;28;20017;-53
2023/03/25 21:53:45;;;;;;;7.05;3.45;;;15.40;74.30;;;;;;10445587;28;20041;-53
2023/03/25 21:58:47;;;;;;;4.28;1.77;;;15.40;74.30;;;;;;10451176;28;20553;-54
2023/03/25 22:03:52;;;;;;;8.02;2.42;;;15.30;74.20;;;;;;10452896;28;20027;-54
2023/03/25 22:08:55;;;;;;;8.13;2.08;;;15.30;74.10;;;;;;10452273;28;20024;-53
2023/03/25 22:13:57;;;;;;;5.90;2.30;;;15.30;74.10;;;;;;10452501;28;20105;-54
2023/03/25 22:18:58;;;;;;;3.70;2.00;;;15.30;74.10;;;;;;10453538;28;20547;-53
2023/03/25 22:24:01;;;;;;;6.38;1.60;;;15.30;74.00;;;;;;10452527;28;20096;-54
2023/03/25 22:29:05;;;;;;;8.93;2.03;;;15.30;74.00;;;;;;10451646;28;20028;-54
2023/03/25 22:34:13;;;;;;;6.07;1.88;;;15.30;74.00;;;;;;10452623;28;20040;-54
2023/03/25 22:39:17;;;;;;;4.63;1.58;;;15.30;74.00;;;;;;10440657;28;20096;-54
2023/03/25 22:44:18;;;;;;;4.85;1.75;;;15.30;74.10;;;;;;10450999;28;20013;-55
2023/03/25 22:49:19;;;;;;;7.22;1.88;;;15.30;74.10;;;;;;10433823;28;20041;-54
2023/03/25 22:54:21;;;;;;;5.10;1.63;;;15.30;74.10;;;;;;10451297;28;20021;-54
2023/03/25 22:59:21;;;;;;;4.07;2.20;;;15.30;74.00;;;;;;10449973;28;20147;-53
2023/03/25 23:04:22;;;;;;;5.65;1.95;;;15.20;73.90;;;;;;10451708;28;20119;-54
2023/03/25 23:09:40;;;;;;;3.65;1.20;;;15.20;73.90;;;;;;10450246;28;20072;-54
2023/03/25 23:14:47;;;;;;;2.83;1.65;;;15.20;73.90;;;;;;10449796;28;20060;-54
2023/03/25 23:19:47;;;;;;;3.97;1.77;;;15.20;73.80;;;;;;10433761;28;20052;-52
2023/03/25 23:24:48;;;;;;;4.20;1.52;;;15.20;73.80;;;;;;10450520;28;20036;-54
2023/03/25 23:29:49;;;;;;;5.18;1.50;;;15.20;73.80;;;;;;10450492;28;20786;-54
2023/03/25 23:34:49;;;;;;;3.70;1.30;;;15.20;73.80;;;;;;10450275;28;20021;-54
2023/03/25 23:39:51;;;;;;;5.40;2.13;;;15.20;73.70;;;;;;10450709;28;20496;-54
2023/03/25 23:44:53;;;;;;;4.60;1.85;;;15.20;73.70;;;;;;10450014;28;20029;-54
2023/03/25 23:49:56;;;;;;;8.27;1.92;;;15.20;73.70;;;;;;10449878;28;20102;-54
2023/03/25 23:54:57;;;;;;;5.28;1.50;;;15.10;73.70;;;;;;10464447;28;20042;-54
2023/03/25 23:59:58;;;;;;;4.38;1.38;;;15.20;73.70;;;;;;10448311;28;20052;-54
